LGW weather

London Gatwick Airport
London, England, United Kingdom

Public forecast

Using degrees Celsius for public forecast. Weather courtesy of forecast.io.

METAR (pilot weather report)

Retrieved 2017/11/24 13:20 UTC (10 minutes ago):

EGKK 241320Z 29004KT 230V330 CAVOK 07/04 Q1011

TAF (pilot weather forecast)

Retrieved 2017/11/24 12:15 UTC (1 hour ago):

TAF EGKK 241053Z 2412/2518 29004KT 9999 SCT040 PROB30 TEMPO 2504/2507 8000 -RA BKN012 BECMG 2509/2512 30014KT